Fukuei Maru — JD3285 — position and weather

sailwx.info

Track history (hours):
 
Tides and Currents Weather Stations Pressure Air Temp Water Temp Dewpoint Dewpoint Depression Visibility Wind Speed Wind Dir Waves Ship Positions

Fukuei Maru

Last reported at 2017-Oct-19 05:29 UTC. Time now 2017-Oct-19 05:46 UTC.
Position N 34°32' E 135°15'.

Length 58 m; draft 4 m.

Type: Cargo ship. MMSI: 431003166.

Date/timePositionNaut miles runAvg speedWind from/ knotsBaromVisibWave heightAir tempDewpointWater temp
2017-Oct-19 05:29N 34°32' E 135°15'6 0.9
2017-Oct-18 22:33N 34°28' E 135°21'0 1.1
2017-Oct-18 22:30N 34°28' E 135°21'1 1.9
2017-Oct-18 22:00N 34°28' E 135°20'0 0.0
2017-Oct-18 21:30N 34°28' E 135°20'0 0.0
2017-Oct-18 21:00N 34°28' E 135°20'0 0.0
2017-Oct-18 20:30N 34°28' E 135°20'0 0.0
2017-Oct-18 19:48N 34°28' E 135°20'0 0.0
2017-Oct-18 19:30N 34°28' E 135°20'0 0.0
2017-Oct-18 18:48N 34°28' E 135°20'0 0.0
2017-Oct-18 18:24N 34°28' E 135°20'0 0.0
2017-Oct-18 17:06N 34°28' E 135°20'0 0.0
2017-Oct-18 17:00N 34°28' E 135°20'0 0.0
2017-Oct-18 16:00N 34°28' E 135°20'0 0.0
2017-Oct-18 15:18N 34°28' E 135°20'0 0.0
2017-Oct-18 14:48N 34°28' E 135°20'0 0.0
2017-Oct-18 14:00N 34°28' E 135°20'0 0.0
2017-Oct-18 13:30N 34°28' E 135°20'0 0.0
2017-Oct-18 13:00N 34°28' E 135°20'0 0.0
2017-Oct-18 12:30N 34°28' E 135°20'0 0.0
2017-Oct-18 11:54N 34°28' E 135°20'0 0.0
2017-Oct-18 11:30N 34°28' E 135°20'0 0.0
2017-Oct-18 11:00N 34°28' E 135°20'0 0.0
2017-Oct-18 10:24N 34°28' E 135°20'2 5.4
2017-Oct-18 09:59N 34°30' E 135°18'510.5
2017-Oct-18 09:30N 34°34' E 135°14'510.7
2017-Oct-18 09:00N 34°34' E 135°07'5 9.9
2017-Oct-18 08:29N 34°36' E 135°02'6 8.7
2017-Oct-18 07:50N 34°36' E 134°55'  
Track history (hours):
 
Tides and Currents Weather Stations Pressure Air Temp Water Temp Dewpoint Dewpoint Depression Visibility Wind Speed Wind Dir Waves Ship Positions

Fukuei Maru

Last reported at 2017-Oct-19 05:29 UTC. Time now 2017-Oct-19 05:47 UTC.
Position N 34°32' E 135°15'.

Length 58 m; draft 4 m.

Type: Cargo ship. MMSI: 431003166.

Date/timePositionNaut miles runAvg speedWind from/ knotsBaromVisibWave heightAir tempDewpointWater temp
2017-Oct-19 05:29N 34°32' E 135°15'6 0.9
2017-Oct-18 22:33N 34°28' E 135°21'0 1.1
2017-Oct-18 22:30N 34°28' E 135°21'1 1.9
2017-Oct-18 22:00N 34°28' E 135°20'0 0.0
2017-Oct-18 21:30N 34°28' E 135°20'0 0.0
2017-Oct-18 21:00N 34°28' E 135°20'0 0.0
2017-Oct-18 20:30N 34°28' E 135°20'0 0.0
2017-Oct-18 19:48N 34°28' E 135°20'0 0.0
2017-Oct-18 19:30N 34°28' E 135°20'0 0.0
2017-Oct-18 18:48N 34°28' E 135°20'0 0.0
2017-Oct-18 18:24N 34°28' E 135°20'0 0.0
2017-Oct-18 17:06N 34°28' E 135°20'0 0.0
2017-Oct-18 17:00N 34°28' E 135°20'0 0.0
2017-Oct-18 16:00N 34°28' E 135°20'0 0.0
2017-Oct-18 15:18N 34°28' E 135°20'0 0.0
2017-Oct-18 14:48N 34°28' E 135°20'0 0.0
2017-Oct-18 14:00N 34°28' E 135°20'0 0.0
2017-Oct-18 13:30N 34°28' E 135°20'0 0.0
2017-Oct-18 13:00N 34°28' E 135°20'0 0.0
2017-Oct-18 12:30N 34°28' E 135°20'0 0.0
2017-Oct-18 11:54N 34°28' E 135°20'0 0.0
2017-Oct-18 11:30N 34°28' E 135°20'0 0.0
2017-Oct-18 11:00N 34°28' E 135°20'0 0.0
2017-Oct-18 10:24N 34°28' E 135°20'2 5.4
2017-Oct-18 09:59N 34°30' E 135°18'510.5
2017-Oct-18 09:30N 34°34' E 135°14'510.7
2017-Oct-18 09:00N 34°34' E 135°07'5 9.9
2017-Oct-18 08:29N 34°36' E 135°02'6 8.7
2017-Oct-18 07:50N 34°36' E 134°55'  

Dump ship's entire track history